KCDR/CDR METAR and TAF weather

Enter ICAO airport designator
Station Type Date Time Source
KCDR METAR 2019/05/26 00:53 UTC NOAA

KCDR 260053Z AUTO 34009KT 10SM BKN095 19/11 A2992 RMK AO2 LTG DSNT N SLP128 T01940111


Station Type Date Time Source
KCDR Decoded METAR 2019/05/26 00:53 UTC NOAA

CHADRON MUNICIPAL AIRPORT, NE, United States (KCDR) 42-50N 103-06W 1010M
May 25, 2019 - 08:53 PM EDT / 2019.05.26 0053 UTC
Wind: from the NNW (340 degrees) at 10 MPH (9 KT):0
Visibility: 10 mile(s):0
Sky conditions: mostly cloudy
Weather: Lightning observed
Temperature: 66.9 F (19.4 C)
Dew Point: 52.0 F (11.1 C)
Relative Humidity: 58%
Pressure (altimeter): 29.92 in. Hg (1013 hPa)
ob: KCDR 260053Z AUTO 34009KT 10SM BKN095 19/11 A2992 RMK AO2 LTG DSNT N SLP128 T01940111
cycle: 1

Station Type Date Time Source
KCDR TAF 2019/05/25 18:30 UTC NOAA

TAF KCDR 251727Z 2518/2618 VRB05KT P6SM SKC
FM260700 15008KT P6SM SCT200 WS020/17030KT
FM261000 16007KT P6SM BKN100 WS010/18015KT

Example: see airport list